createdAt,value
2023-05-06T00:01:47.647Z,20.85
2023-05-06T00:03:49.183Z,20.86
2023-05-06T00:05:50.685Z,20.88
2023-05-06T00:07:52.044Z,20.92
2023-05-06T00:09:53.377Z,20.96
2023-05-06T00:11:54.746Z,21.01
2023-05-06T00:13:56.081Z,21.04
2023-05-06T00:15:57.404Z,21.04
2023-05-06T00:17:58.736Z,21.02
2023-05-06T00:20:00.090Z,21.01
2023-05-06T00:22:02.236Z,20.98
2023-05-06T00:24:03.615Z,20.96
2023-05-06T00:26:04.920Z,20.93
2023-05-06T00:28:06.326Z,20.93
2023-05-06T00:30:07.638Z,20.92
2023-05-06T00:32:09.056Z,20.92
2023-05-06T00:34:10.369Z,20.90
2023-05-06T00:36:11.662Z,20.93
2023-05-06T00:38:13.332Z,20.93
2023-05-06T00:40:14.756Z,20.97
2023-05-06T00:42:16.175Z,20.97
2023-05-06T00:44:17.482Z,20.99
2023-05-06T00:46:18.882Z,20.98
2023-05-06T00:48:20.296Z,20.95
2023-05-06T00:50:21.597Z,20.95
2023-05-06T00:52:22.933Z,20.93
2023-05-06T00:54:24.225Z,20.93
2023-05-06T00:56:25.555Z,20.91
2023-05-06T00:58:26.894Z,20.89
2023-05-06T01:00:28.304Z,20.87
2023-05-06T01:02:39.814Z,20.84
2023-05-06T01:04:47.587Z,20.81
2023-05-06T01:06:48.939Z,20.81
2023-05-06T01:08:50.283Z,20.82
2023-05-06T01:10:51.642Z,20.84
2023-05-06T01:12:52.954Z,20.87
2023-05-06T01:14:54.315Z,20.91
2023-05-06T01:16:56.064Z,20.98
2023-05-06T01:18:57.385Z,21.03
2023-05-06T01:20:59.175Z,21.07
2023-05-06T01:23:00.646Z,21.09
2023-05-06T01:25:01.956Z,21.09
2023-05-06T01:27:03.295Z,21.05
2023-05-06T01:29:04.626Z,21.02
2023-05-06T01:31:06.028Z,20.98
2023-05-06T01:33:07.362Z,20.93
2023-05-06T01:35:08.949Z,20.90
2023-05-06T01:37:10.507Z,20.87
2023-05-06T01:39:11.839Z,20.89
2023-05-06T01:41:13.146Z,20.89
2023-05-06T01:43:14.472Z,20.88
2023-05-06T01:45:16.564Z,20.86
2023-05-06T01:47:17.862Z,20.87
2023-05-06T01:49:19.182Z,20.84
2023-05-06T01:51:20.571Z,20.83
2023-05-06T01:53:22.171Z,20.82
2023-05-06T01:55:23.526Z,20.80
2023-05-06T01:57:24.935Z,20.81
2023-05-06T01:59:27.313Z,20.82
2023-05-06T02:01:29.352Z,20.85
2023-05-06T02:03:30.870Z,20.88
2023-05-06T02:05:32.420Z,20.94
2023-05-06T02:07:34.900Z,21.00
2023-05-06T02:09:36.254Z,21.05
2023-05-06T02:11:37.632Z,21.08
2023-05-06T02:13:39.006Z,21.14
2023-05-06T02:15:40.348Z,21.17
2023-05-06T02:17:41.693Z,21.18
2023-05-06T02:19:43.025Z,21.19
2023-05-06T02:21:44.328Z,21.19
2023-05-06T02:23:45.692Z,21.20
2023-05-06T02:25:46.995Z,21.19
2023-05-06T02:27:48.294Z,21.19
2023-05-06T02:29:49.660Z,21.19
2023-05-06T02:31:51.138Z,21.25
2023-05-06T02:33:52.502Z,21.27
2023-05-06T02:35:53.858Z,21.29
2023-05-06T02:37:55.171Z,21.28
2023-05-06T02:39:56.509Z,21.29
2023-05-06T02:41:57.801Z,21.28
2023-05-06T02:43:59.127Z,21.26
2023-05-06T02:46:00.625Z,21.27
2023-05-06T02:48:02.008Z,21.27
2023-05-06T02:50:03.726Z,21.27
2023-05-06T02:52:05.038Z,21.33
2023-05-06T02:54:06.658Z,21.32
2023-05-06T02:56:08.103Z,21.30
2023-05-06T02:58:09.505Z,21.26
2023-05-06T03:00:11.076Z,21.21
2023-05-06T03:02:12.487Z,21.19
2023-05-06T03:04:13.861Z,21.18
2023-05-06T03:06:15.200Z,21.15
2023-05-06T03:08:16.837Z,21.18
2023-05-06T03:10:18.205Z,20.32
2023-05-06T03:12:19.500Z,21.19
2023-05-06T03:14:21.377Z,21.18
2023-05-06T03:16:22.734Z,21.17
2023-05-06T03:18:24.134Z,21.16
2023-05-06T03:20:25.760Z,21.16
2023-05-06T03:22:27.064Z,21.19
2023-05-06T03:24:28.366Z,21.21
2023-05-06T03:26:29.696Z,21.22
2023-05-06T03:28:31.041Z,21.19
2023-05-06T03:30:32.369Z,21.18
2023-05-06T03:32:33.759Z,21.17
2023-05-06T03:34:35.081Z,21.15
2023-05-06T03:36:36.433Z,21.13
2023-05-06T03:38:37.771Z,21.13
2023-05-06T03:40:39.165Z,21.12
2023-05-06T03:42:40.505Z,21.11
2023-05-06T03:44:41.857Z,21.09
2023-05-06T03:46:43.354Z,21.07
2023-05-06T03:48:44.893Z,21.06
2023-05-06T03:50:46.209Z,21.07
2023-05-06T03:52:47.503Z,21.08
2023-05-06T03:54:49.522Z,21.08
2023-05-06T03:56:50.918Z,21.12
2023-05-06T03:58:54.078Z,21.12
2023-05-06T04:00:55.512Z,21.12
2023-05-06T04:02:56.909Z,21.12
2023-05-06T04:04:58.520Z,21.11
2023-05-06T04:06:59.924Z,21.07
2023-05-06T04:09:01.218Z,21.06
2023-05-06T04:11:02.517Z,21.06
2023-05-06T04:13:03.868Z,21.07
2023-05-06T04:15:05.272Z,21.05
2023-05-06T04:17:07.222Z,21.04
2023-05-06T04:19:09.245Z,21.04
2023-05-06T04:21:13.446Z,21.07
2023-05-06T04:23:14.750Z,21.07
2023-05-06T04:25:16.300Z,21.08
2023-05-06T04:27:17.717Z,21.09
2023-05-06T04:29:19.014Z,21.10
2023-05-06T04:31:20.394Z,21.08
2023-05-06T04:33:22.306Z,21.06
2023-05-06T04:35:23.618Z,21.05
2023-05-06T04:37:24.953Z,21.05
2023-05-06T04:39:26.263Z,21.05
2023-05-06T04:41:29.306Z,21.09
2023-05-06T04:43:31.116Z,21.12
2023-05-06T04:45:32.677Z,21.12
2023-05-06T04:47:34.021Z,21.14
2023-05-06T04:49:35.466Z,21.16
2023-05-06T04:51:36.763Z,21.18
2023-05-06T04:53:38.111Z,21.18
2023-05-06T04:55:39.411Z,21.17
2023-05-06T04:57:40.733Z,21.14
2023-05-06T04:59:42.636Z,21.11
2023-05-06T05:01:44.088Z,21.09
2023-05-06T05:03:45.820Z,21.07
2023-05-06T05:05:47.259Z,21.06
2023-05-06T05:07:51.487Z,21.07
2023-05-06T05:09:52.820Z,21.08
2023-05-06T05:11:54.132Z,21.09
2023-05-06T05:13:56.953Z,21.09
2023-05-06T05:15:59.071Z,21.08
2023-05-06T05:18:00.389Z,21.08
2023-05-06T05:20:02.269Z,21.09
2023-05-06T05:22:03.616Z,21.10
2023-05-06T05:24:04.980Z,21.10
2023-05-06T05:26:06.328Z,21.09
2023-05-06T05:28:07.634Z,21.11
2023-05-06T05:30:08.962Z,21.10
2023-05-06T05:32:10.440Z,21.07
2023-05-06T05:34:11.744Z,21.11
2023-05-06T05:36:15.371Z,21.25
2023-05-06T05:38:17.004Z,21.20
2023-05-06T05:40:18.339Z,20.17
2023-05-06T05:42:19.709Z,19.49
2023-05-06T05:44:21.097Z,19.17
2023-05-06T05:46:22.444Z,19.04
2023-05-06T05:48:26.544Z,18.94
2023-05-06T05:50:27.850Z,18.77
2023-05-06T05:52:29.187Z,18.69
2023-05-06T05:54:30.649Z,18.72
2023-05-06T05:56:31.948Z,18.64
2023-05-06T05:58:33.257Z,18.63
2023-05-06T06:00:34.546Z,19.29
2023-05-06T06:02:35.991Z,19.85
2023-05-06T06:04:37.424Z,20.19
2023-05-06T06:06:38.825Z,20.36
2023-05-06T06:08:40.602Z,20.45
2023-05-06T06:10:41.993Z,20.51
2023-05-06T06:12:44.772Z,20.57
2023-05-06T06:14:48.170Z,20.55
2023-05-06T06:16:49.614Z,20.56
2023-05-06T06:18:50.953Z,20.58
2023-05-06T06:20:53.503Z,20.63
2023-05-06T06:22:58.009Z,20.73
2023-05-06T06:24:59.406Z,20.79
2023-05-06T06:27:02.166Z,20.82
2023-05-06T06:29:03.498Z,20.89
2023-05-06T06:31:04.865Z,20.97
2023-05-06T06:33:06.235Z,21.08
2023-05-06T06:35:07.722Z,21.15
2023-05-06T06:37:09.195Z,21.20
2023-05-06T06:39:10.490Z,21.22
2023-05-06T06:41:11.817Z,21.28
2023-05-06T06:43:13.242Z,21.32
2023-05-06T06:45:14.603Z,21.36
2023-05-06T06:47:15.915Z,21.38
2023-05-06T06:49:17.413Z,21.52
2023-05-06T06:51:18.766Z,21.61
2023-05-06T06:53:20.104Z,21.62
2023-05-06T06:55:24.472Z,21.61
2023-05-06T06:57:25.881Z,21.58
2023-05-06T06:59:27.475Z,21.54
2023-05-06T07:01:28.962Z,21.54
2023-05-06T07:03:30.395Z,21.61
2023-05-06T07:05:31.764Z,21.68
2023-05-06T07:07:33.103Z,21.90
2023-05-06T07:09:35.666Z,22.07
2023-05-06T07:11:37.237Z,21.85
2023-05-06T07:13:38.592Z,21.68
2023-05-06T07:15:39.931Z,21.49
2023-05-06T07:17:41.373Z,21.35
2023-05-06T07:19:42.732Z,21.26
2023-05-06T07:21:44.070Z,21.18
2023-05-06T07:23:45.694Z,21.13
2023-05-06T07:25:47.131Z,21.09
2023-05-06T07:27:48.494Z,21.05
2023-05-06T07:29:49.781Z,21.00
2023-05-06T07:31:57.144Z,20.97
2023-05-06T07:34:01.476Z,20.94
2023-05-06T07:36:03.105Z,20.92
2023-05-06T07:38:04.446Z,20.88
2023-05-06T07:40:06.020Z,20.87
2023-05-06T07:42:08.168Z,20.85
2023-05-06T07:44:09.599Z,20.86
2023-05-06T07:46:10.932Z,20.84
2023-05-06T07:48:12.340Z,20.84
2023-05-06T07:50:13.841Z,20.82
2023-05-06T07:52:15.217Z,20.79
2023-05-06T07:54:16.546Z,20.76
2023-05-06T07:56:17.962Z,20.74
2023-05-06T07:58:19.326Z,20.68
2023-05-06T08:00:20.814Z,20.88
2023-05-06T08:02:22.354Z,21.44
2023-05-06T08:04:23.907Z,21.53
2023-05-06T08:06:25.314Z,21.54
2023-05-06T08:08:28.508Z,21.58
2023-05-06T08:10:29.901Z,21.60
2023-05-06T08:12:31.247Z,21.62
2023-05-06T08:14:32.610Z,21.64
2023-05-06T08:16:33.973Z,21.68
2023-05-06T08:18:35.376Z,22.04
2023-05-06T08:20:36.714Z,22.38
2023-05-06T08:22:38.305Z,22.54
2023-05-06T08:24:39.615Z,22.25
2023-05-06T08:26:40.989Z,22.33
2023-05-06T08:28:42.329Z,22.49
2023-05-06T08:31:00.900Z,22.59
2023-05-06T08:33:02.349Z,22.54
2023-05-06T08:35:03.725Z,22.79
2023-05-06T08:37:05.081Z,22.59
2023-05-06T08:39:06.380Z,22.41
2023-05-06T08:41:07.673Z,22.29
2023-05-06T08:43:09.134Z,22.24
2023-05-06T08:45:11.337Z,22.19
2023-05-06T08:47:12.745Z,22.16
2023-05-06T08:49:14.062Z,22.07
2023-05-06T08:51:15.631Z,21.78
2023-05-06T08:53:17.055Z,21.62
2023-05-06T08:55:18.392Z,21.50
2023-05-06T08:57:20.184Z,21.42
2023-05-06T08:59:21.488Z,21.37
2023-05-06T09:01:22.864Z,21.35
2023-05-06T09:03:24.384Z,21.31
2023-05-06T09:05:25.811Z,21.26
2023-05-06T09:07:27.176Z,21.24
2023-05-06T09:09:28.531Z,21.20
2023-05-06T09:11:29.966Z,21.17
2023-05-06T09:13:31.314Z,21.13
2023-05-06T09:15:35.519Z,21.07
2023-05-06T09:17:36.993Z,21.05
2023-05-06T09:19:38.358Z,21.01
2023-05-06T09:21:39.666Z,20.97
2023-05-06T09:23:41.009Z,20.93
2023-05-06T09:25:42.362Z,20.91
2023-05-06T09:27:43.714Z,20.88
2023-05-06T09:29:45.016Z,20.86
2023-05-06T09:31:46.359Z,20.85
2023-05-06T09:33:47.698Z,20.82
2023-05-06T09:35:49.981Z,20.80
2023-05-06T09:37:51.306Z,20.78
2023-05-06T09:39:52.645Z,20.79
2023-05-06T09:41:53.980Z,20.80
2023-05-06T09:43:55.332Z,20.80
2023-05-06T09:45:56.663Z,20.79
2023-05-06T09:47:58.083Z,20.79
2023-05-06T09:49:59.462Z,20.77
2023-05-06T09:52:00.865Z,20.78
2023-05-06T09:54:02.318Z,20.79
2023-05-06T09:56:03.661Z,20.80
2023-05-06T09:58:05.026Z,20.83
2023-05-06T10:00:07.254Z,20.83
2023-05-06T10:02:08.623Z,20.83
2023-05-06T10:04:10.913Z,20.86
2023-05-06T10:06:12.400Z,20.87
2023-05-06T10:08:15.199Z,20.90
2023-05-06T10:10:16.526Z,20.88
2023-05-06T10:12:18.299Z,21.96
2023-05-06T10:14:19.652Z,21.93
2023-05-06T10:16:21.016Z,21.92
2023-05-06T10:18:22.535Z,21.98
2023-05-06T10:20:23.836Z,22.05
2023-05-06T10:22:26.259Z,22.20
2023-05-06T10:24:27.973Z,22.32
2023-05-06T10:26:29.319Z,22.33
2023-05-06T10:28:31.762Z,21.94
2023-05-06T10:30:33.207Z,21.62
2023-05-06T10:32:34.571Z,21.42
2023-05-06T10:34:35.928Z,21.30
2023-05-06T10:36:37.390Z,21.22
2023-05-06T10:38:38.707Z,21.17
2023-05-06T10:40:40.555Z,21.16
2023-05-06T10:42:41.994Z,21.14
2023-05-06T10:44:45.058Z,21.14
2023-05-06T10:46:47.408Z,21.14
2023-05-06T10:48:48.745Z,21.14
2023-05-06T10:50:50.060Z,21.15
2023-05-06T10:52:54.286Z,21.20
2023-05-06T10:54:55.616Z,21.65
2023-05-06T10:56:58.216Z,21.88
2023-05-06T10:58:59.556Z,22.04
2023-05-06T11:01:00.869Z,22.11
2023-05-06T11:03:02.430Z,21.94
2023-05-06T11:05:03.861Z,21.74
2023-05-06T11:07:05.455Z,21.63
2023-05-06T11:09:06.849Z,21.54
2023-05-06T11:11:08.139Z,21.48
2023-05-06T11:13:09.604Z,21.47
2023-05-06T11:15:11.288Z,21.44
2023-05-06T11:17:12.915Z,21.42
2023-05-06T11:19:14.345Z,21.39
2023-05-06T11:21:15.768Z,21.36
2023-05-06T11:23:17.113Z,21.36
2023-05-06T11:25:18.417Z,21.39
2023-05-06T11:27:21.952Z,20.61
2023-05-06T11:29:23.278Z,21.39
2023-05-06T11:31:24.655Z,21.39
2023-05-06T11:33:26.244Z,21.35
2023-05-06T11:35:27.544Z,21.36
2023-05-06T11:37:28.965Z,21.31
2023-05-06T11:39:38.742Z,21.26
2023-05-06T11:41:41.334Z,21.23
2023-05-06T11:43:42.680Z,21.21
2023-05-06T11:45:44.016Z,21.21
2023-05-06T11:47:45.662Z,21.21
2023-05-06T11:49:47.204Z,21.18
2023-05-06T11:51:48.800Z,21.21
2023-05-06T11:53:50.139Z,21.19
2023-05-06T11:55:51.511Z,21.20
2023-05-06T11:57:52.844Z,21.20
2023-05-06T11:59:54.292Z,21.20
2023-05-06T12:01:55.660Z,21.20
2023-05-06T12:03:57.187Z,21.18
2023-05-06T12:05:58.579Z,21.18
2023-05-06T12:07:59.916Z,21.19
2023-05-06T12:10:04.190Z,21.24
2023-05-06T12:12:05.623Z,21.24
2023-05-06T12:14:06.961Z,21.24
2023-05-06T12:16:08.557Z,21.22
2023-05-06T12:18:09.991Z,21.18
2023-05-06T12:20:11.747Z,21.16
2023-05-06T12:22:13.319Z,21.17
2023-05-06T12:24:14.697Z,21.18
2023-05-06T12:26:16.031Z,21.18
2023-05-06T12:28:17.373Z,21.19
2023-05-06T12:30:21.418Z,21.19
2023-05-06T12:32:22.771Z,21.18
2023-05-06T12:34:24.108Z,21.18
2023-05-06T12:36:32.552Z,21.24
2023-05-06T12:38:33.884Z,21.22
2023-05-06T12:40:35.258Z,21.16
2023-05-06T12:42:36.616Z,21.07
2023-05-06T12:44:37.996Z,21.00
2023-05-06T12:46:39.303Z,20.96
2023-05-06T12:48:40.758Z,20.92
2023-05-06T12:50:42.144Z,20.98
2023-05-06T12:52:43.495Z,21.38
2023-05-06T12:54:44.832Z,21.60
2023-05-06T12:56:46.232Z,21.71
2023-05-06T12:58:47.536Z,21.76
2023-05-06T13:00:48.870Z,21.83
2023-05-06T13:02:50.337Z,21.87
2023-05-06T13:04:51.723Z,21.93
2023-05-06T13:06:53.093Z,21.93
2023-05-06T13:08:54.440Z,21.96
2023-05-06T13:10:55.996Z,21.99
2023-05-06T13:13:00.401Z,21.92
2023-05-06T13:15:01.801Z,21.61
2023-05-06T13:17:06.697Z,20.71
2023-05-06T13:19:10.898Z,21.25
2023-05-06T13:21:16.820Z,21.17
2023-05-06T13:23:19.418Z,21.10
2023-05-06T13:25:20.857Z,21.07
2023-05-06T13:27:22.273Z,21.04
2023-05-06T13:29:23.859Z,21.02
2023-05-06T13:31:27.425Z,21.03
2023-05-06T13:33:28.825Z,21.03
2023-05-06T13:35:30.632Z,21.01
2023-05-06T13:37:31.933Z,21.01
2023-05-06T13:39:33.312Z,20.99
2023-05-06T13:41:34.926Z,21.00
2023-05-06T13:43:36.349Z,20.98
2023-05-06T13:45:37.652Z,20.99
2023-05-06T13:47:38.981Z,20.98
2023-05-06T13:49:40.699Z,20.98
2023-05-06T13:51:42.000Z,21.05
2023-05-06T13:53:43.836Z,21.04
2023-05-06T13:55:45.398Z,21.00
2023-05-06T13:57:46.714Z,20.96
2023-05-06T13:59:49.094Z,20.95
2023-05-06T14:01:53.582Z,20.93
2023-05-06T14:03:54.984Z,20.91
2023-05-06T14:05:56.331Z,20.88
2023-05-06T14:07:57.630Z,20.85
2023-05-06T14:09:58.966Z,20.85
2023-05-06T14:12:00.552Z,20.83
2023-05-06T14:14:02.434Z,20.82
2023-05-06T14:16:03.771Z,20.85
2023-05-06T14:18:05.261Z,20.84
2023-05-06T14:20:06.676Z,20.93
2023-05-06T14:22:08.136Z,20.94
2023-05-06T14:24:10.217Z,20.93
2023-05-06T14:26:11.524Z,20.96
2023-05-06T14:28:13.059Z,20.94
2023-05-06T14:30:14.381Z,20.90
2023-05-06T14:32:15.786Z,20.90
2023-05-06T14:34:17.159Z,20.98
2023-05-06T14:36:18.729Z,20.96
2023-05-06T14:38:20.070Z,20.94
2023-05-06T14:40:21.412Z,20.91
2023-05-06T14:42:25.824Z,20.88
2023-05-06T14:44:27.180Z,20.83
2023-05-06T14:46:29.568Z,20.79
2023-05-06T14:48:31.996Z,20.73
2023-05-06T14:50:33.347Z,20.72
2023-05-06T14:52:34.704Z,20.69
2023-05-06T14:54:41.953Z,20.67
2023-05-06T14:56:45.635Z,20.68
2023-05-06T14:58:46.948Z,20.70
2023-05-06T15:00:48.271Z,20.71
2023-05-06T15:02:49.591Z,20.74
2023-05-06T15:04:51.817Z,20.77
2023-05-06T15:06:53.193Z,20.80
2023-05-06T15:08:54.487Z,20.82
2023-05-06T15:10:55.808Z,20.84
2023-05-06T15:12:57.179Z,20.86
2023-05-06T15:14:58.513Z,20.87
2023-05-06T15:17:00.026Z,20.91
2023-05-06T15:19:01.479Z,20.94
2023-05-06T15:21:02.834Z,20.95
2023-05-06T15:23:04.136Z,20.95
2023-05-06T15:25:05.474Z,20.93
2023-05-06T15:27:06.782Z,20.93
2023-05-06T15:29:08.109Z,20.93
2023-05-06T15:31:09.837Z,20.95
2023-05-06T15:33:11.201Z,20.94
2023-05-06T15:35:12.674Z,20.94
2023-05-06T15:37:15.928Z,20.93
2023-05-06T15:39:17.299Z,20.90
2023-05-06T15:41:18.633Z,20.87
2023-05-06T15:43:23.702Z,20.85
2023-05-06T15:45:26.097Z,20.85
2023-05-06T15:47:27.470Z,20.85
2023-05-06T15:51:33.091Z,20.85
2023-05-06T15:53:34.415Z,20.85
2023-05-06T15:55:45.190Z,20.83
2023-05-06T15:57:50.792Z,20.81
2023-05-06T15:59:52.092Z,20.82
2023-05-06T16:03:57.936Z,20.81
2023-05-06T16:05:59.339Z,20.79
2023-05-06T16:08:00.725Z,20.77
2023-05-06T16:10:02.064Z,20.76
2023-05-06T16:12:04.036Z,20.73
2023-05-06T16:14:05.404Z,20.69
2023-05-06T16:16:06.746Z,20.67
2023-05-06T16:18:17.186Z,20.64
2023-05-06T16:20:18.708Z,20.61
2023-05-06T16:22:20.053Z,20.63
2023-05-06T16:24:21.449Z,20.66
2023-05-06T16:26:22.854Z,20.69
2023-05-06T16:28:24.177Z,20.73
2023-05-06T16:30:25.625Z,20.79
2023-05-06T16:32:27.046Z,20.83
2023-05-06T16:34:28.361Z,20.85
2023-05-06T16:36:29.957Z,20.87
2023-05-06T16:38:31.283Z,20.88
2023-05-06T16:40:32.764Z,20.89
2023-05-06T16:42:34.122Z,20.88
2023-05-06T16:44:35.421Z,20.87
2023-05-06T16:46:36.851Z,20.84
2023-05-06T16:48:38.265Z,20.82
2023-05-06T16:50:40.017Z,20.80
2023-05-06T16:52:41.552Z,20.77
2023-05-06T16:54:42.852Z,20.74
2023-05-06T16:56:51.473Z,20.76
2023-05-06T16:58:53.992Z,20.77
2023-05-06T17:00:55.287Z,20.77
2023-05-06T17:02:56.715Z,20.81
2023-05-06T17:04:58.066Z,20.82
2023-05-06T17:06:59.413Z,20.83
2023-05-06T17:09:00.754Z,20.81
2023-05-06T17:11:04.577Z,20.80
2023-05-06T17:13:06.556Z,20.78
2023-05-06T17:15:07.964Z,20.77
2023-05-06T17:17:09.307Z,20.75
2023-05-06T17:19:11.777Z,20.77
2023-05-06T17:21:13.124Z,20.77
2023-05-06T17:23:14.982Z,20.76
2023-05-06T17:25:16.309Z,20.78
2023-05-06T17:27:18.128Z,20.78
2023-05-06T17:29:22.031Z,20.79
2023-05-06T17:31:23.622Z,20.78
2023-05-06T17:33:25.061Z,20.77
2023-05-06T17:35:26.520Z,20.74
2023-05-06T17:37:27.961Z,20.74
2023-05-06T17:39:29.259Z,20.74
2023-05-06T17:41:30.815Z,20.76
2023-05-06T17:43:33.602Z,20.78
2023-05-06T17:45:34.932Z,20.80
2023-05-06T17:47:36.377Z,20.83
2023-05-06T17:49:37.739Z,20.85
2023-05-06T17:51:40.967Z,20.87
2023-05-06T17:53:42.268Z,20.88
2023-05-06T17:55:43.588Z,20.88
2023-05-06T17:57:44.958Z,20.87
2023-05-06T17:59:46.333Z,20.85
2023-05-06T18:01:47.791Z,20.84
2023-05-06T18:03:49.430Z,20.83
2023-05-06T18:05:51.538Z,20.85
2023-05-06T18:07:52.904Z,20.84
2023-05-06T18:09:57.021Z,20.86
2023-05-06T18:11:58.333Z,20.86
2023-05-06T18:13:59.665Z,20.86
2023-05-06T18:16:01.048Z,20.85
2023-05-06T18:18:02.447Z,20.82
2023-05-06T18:20:03.856Z,20.80
2023-05-06T18:22:05.207Z,20.77
2023-05-06T18:24:15.889Z,20.78
2023-05-06T18:26:31.693Z,20.79
2023-05-06T18:28:41.205Z,20.78
2023-05-06T18:30:42.592Z,20.77
2023-05-06T18:32:43.933Z,20.79
2023-05-06T18:34:45.320Z,20.79
2023-05-06T18:36:46.718Z,20.78
2023-05-06T18:38:48.044Z,20.77
2023-05-06T18:40:49.361Z,20.75
2023-05-06T18:42:50.828Z,20.73
2023-05-06T18:44:54.942Z,20.73
2023-05-06T18:46:56.297Z,20.74
2023-05-06T18:49:01.040Z,20.74
2023-05-06T18:51:02.584Z,20.73
2023-05-06T18:53:03.941Z,20.75
2023-05-06T18:55:05.503Z,20.76
2023-05-06T18:57:06.885Z,20.77
2023-05-06T18:59:09.084Z,20.76
2023-05-06T19:01:10.802Z,20.73
2023-05-06T19:03:12.313Z,20.71
2023-05-06T19:05:13.644Z,20.70
2023-05-06T19:07:16.223Z,20.71
2023-05-06T19:09:17.861Z,20.71
2023-05-06T19:11:19.397Z,20.74
2023-05-06T19:13:20.837Z,20.75
2023-05-06T19:15:22.198Z,20.76
2023-05-06T19:17:23.563Z,20.79
2023-05-06T19:19:24.925Z,20.81
2023-05-06T19:21:26.446Z,20.84
2023-05-06T19:23:27.777Z,20.85
2023-05-06T19:25:29.082Z,20.84
2023-05-06T19:27:30.375Z,20.86
2023-05-06T19:29:34.447Z,20.86
2023-05-06T19:31:35.950Z,20.85
2023-05-06T19:33:37.408Z,20.82
2023-05-06T19:35:39.503Z,20.79
2023-05-06T19:37:40.910Z,20.78
2023-05-06T19:39:42.713Z,20.75
2023-05-06T19:41:44.050Z,20.75
2023-05-06T19:43:45.407Z,20.75
2023-05-06T19:45:46.808Z,20.76
2023-05-06T19:47:48.192Z,20.76
2023-05-06T19:49:49.525Z,20.77
2023-05-06T19:51:50.982Z,20.77
2023-05-06T19:53:52.412Z,20.75
2023-05-06T19:55:57.885Z,20.74
2023-05-06T19:57:59.230Z,20.73
2023-05-06T20:00:05.136Z,20.71
2023-05-06T20:02:08.969Z,20.71
2023-05-06T20:04:10.632Z,20.71
2023-05-06T20:06:11.965Z,20.73
2023-05-06T20:08:13.282Z,20.73
2023-05-06T20:10:20.777Z,20.74
2023-05-06T20:12:22.395Z,20.75
2023-05-06T20:14:23.692Z,20.89
2023-05-06T20:16:25.073Z,21.41
2023-05-06T20:18:27.207Z,22.16
2023-05-06T20:20:34.157Z,22.21
2023-05-06T20:22:35.867Z,22.23
2023-05-06T20:24:37.224Z,21.98
2023-05-06T20:26:38.599Z,21.88
2023-05-06T20:28:39.975Z,21.87
2023-05-06T20:30:41.335Z,21.86
2023-05-06T20:32:42.836Z,21.90
2023-05-06T20:34:44.144Z,21.98
2023-05-06T20:36:48.373Z,22.00
2023-05-06T20:38:50.050Z,22.01
2023-05-06T20:40:51.344Z,22.10
2023-05-06T20:42:52.726Z,22.60
2023-05-06T20:44:54.055Z,22.82
2023-05-06T20:46:55.452Z,23.13
2023-05-06T20:48:57.014Z,22.76
2023-05-06T20:50:58.301Z,22.61
2023-05-06T20:52:59.748Z,22.37
2023-05-06T20:55:01.206Z,22.33
2023-05-06T20:57:02.724Z,22.40
2023-05-06T20:59:04.136Z,22.46
2023-05-06T21:01:05.451Z,22.47
2023-05-06T21:03:07.033Z,22.20
2023-05-06T21:05:09.006Z,21.91
2023-05-06T21:07:10.610Z,21.70
2023-05-06T21:09:12.274Z,21.62
2023-05-06T21:11:13.598Z,21.76
2023-05-06T21:13:14.962Z,22.09
2023-05-06T21:15:16.412Z,22.28
2023-05-06T21:17:17.755Z,22.57
2023-05-06T21:19:19.289Z,22.56
2023-05-06T21:21:21.315Z,22.48
2023-05-06T21:23:22.622Z,22.46
2023-05-06T21:25:23.944Z,22.47
2023-05-06T21:27:28.008Z,22.44
2023-05-06T21:29:29.313Z,22.47
2023-05-06T21:31:30.778Z,22.45
2023-05-06T21:33:32.200Z,22.45
2023-05-06T21:35:33.505Z,22.45
2023-05-06T21:37:35.966Z,22.47
2023-05-06T21:39:37.276Z,22.19
2023-05-06T21:41:38.592Z,21.95
2023-05-06T21:43:39.896Z,22.18
2023-05-06T21:45:41.233Z,22.36
2023-05-06T21:47:45.980Z,22.47
2023-05-06T21:49:47.374Z,22.52
2023-05-06T21:51:48.752Z,22.57
2023-05-06T21:53:50.514Z,22.58
2023-05-06T21:55:52.034Z,22.75
2023-05-06T21:57:53.335Z,22.70
2023-05-06T21:59:54.752Z,22.67
2023-05-06T22:01:56.132Z,22.94
2023-05-06T22:03:57.594Z,22.84
2023-05-06T22:05:59.020Z,22.80
2023-05-06T22:08:00.323Z,22.77
2023-05-06T22:10:01.624Z,22.86
2023-05-06T22:12:06.634Z,23.08
2023-05-06T22:14:07.998Z,22.43
2023-05-06T22:16:09.826Z,22.05
2023-05-06T22:18:11.259Z,20.60
2023-05-06T22:20:12.591Z,20.96
2023-05-06T22:22:13.927Z,21.25
2023-05-06T22:24:15.239Z,21.40
2023-05-06T22:26:16.588Z,21.43
2023-05-06T22:28:17.912Z,21.42
2023-05-06T22:30:19.223Z,21.40
2023-05-06T22:32:21.656Z,21.39
2023-05-06T22:34:22.995Z,21.39
2023-05-06T22:36:26.857Z,21.39
2023-05-06T22:38:28.199Z,21.39
2023-05-06T22:40:29.611Z,21.38
2023-05-06T22:42:30.916Z,21.38
2023-05-06T22:44:32.650Z,21.39
2023-05-06T22:46:33.989Z,21.39
2023-05-06T22:48:35.405Z,21.41
2023-05-06T22:50:38.130Z,21.45
2023-05-06T22:52:39.733Z,21.53
2023-05-06T22:54:41.142Z,21.58
2023-05-06T22:56:42.443Z,21.61
2023-05-06T22:58:43.776Z,21.63
2023-05-06T23:00:47.866Z,21.64
2023-05-06T23:02:49.317Z,21.62
2023-05-06T23:04:50.710Z,21.58
2023-05-06T23:06:52.106Z,21.54
2023-05-06T23:08:53.422Z,21.51
2023-05-06T23:10:54.815Z,21.50
2023-05-06T23:12:56.175Z,21.54
2023-05-06T23:14:57.513Z,21.58
2023-05-06T23:16:58.836Z,21.60
2023-05-06T23:19:00.238Z,21.58
2023-05-06T23:21:01.534Z,21.58
2023-05-06T23:23:02.880Z,21.58
2023-05-06T23:25:04.187Z,21.57
2023-05-06T23:27:05.514Z,21.59
2023-05-06T23:29:06.923Z,21.59
2023-05-06T23:31:08.332Z,21.59
2023-05-06T23:33:09.675Z,21.58
2023-05-06T23:35:11.310Z,21.58
2023-05-06T23:37:12.860Z,21.58
2023-05-06T23:39:14.196Z,21.59
2023-05-06T23:41:15.529Z,21.61
2023-05-06T23:43:16.824Z,21.64
2023-05-06T23:45:19.733Z,21.68
2023-05-06T23:47:21.047Z,21.69
2023-05-06T23:49:22.366Z,21.68
2023-05-06T23:51:23.721Z,21.68
2023-05-06T23:53:25.022Z,21.65
2023-05-06T23:55:26.447Z,21.64
2023-05-06T23:57:27.840Z,21.66
2023-05-06T23:59:29.437Z,21.65
